Crow Agency, MT (59022)

10:47 AM MST on February 07, 2016 (GMT -0700)
KMTBUSBY2 | | Change Station
CLOSE
Current Station
Personal Weather Station
Location: Busby, MT
Elevation: 3480 ft
Nearby Weather Stations

Elev 3480 ft 45.63 °N, 107.12 °W | Updated 3 minutes ago

Partly Cloudy
Partly Cloudy
33.1 °F
Feels Like 24 °F
N
13.1
Wind Variable Wind from NW
Gusts 18.0 mph

Today
High -- | Low -- °F
--% Chance of Precip.
Yesterday
High -- | Low -- °F
Precip. -- in
Pressure 30.50 in
Visibility 10.0 miles
Clouds Few 8000 ft
Scattered Clouds 20000 ft
Windchill 24 °F
Dew Point 16 °F
Humidity 49%
Rainfall 0.00 in
Snow Depth Not available.
7:24 AM 5:24 PM
Waning Crescent, 1% visible
METAR KBIL 071653Z 32012KT 10SM FEW080 SCT200 02/M09 A3043 RMK AO2 SLP328 T00221094
Pressure 30.50 in
Visibility 10.0 miles
Clouds Few 8000 ft
Scattered Clouds 20000 ft
Windchill 24 °F
Dew Point 16 °F
Humidity 49%
Rainfall 0.00 in
Snow Depth Not available.
7:24 AM 5:24 PM
Waning Crescent, 1% visible
METAR KBIL 071653Z 32012KT 10SM FEW080 SCT200 02/M09 A3043 RMK AO2 SLP328 T00221094

10-Day Weather Forecast

Almanac

Astronomy

Feb. 07, 2016 Rise Set
Actual Time
Civil Twilight
Nautical Twilight
Astronomical Twilight
Moon
Length of Visible Light
Length of Day
Tomorrow will be .
, % of the Moon is Illuminated

Today's Extremes

State Highs State Lows

Community

WunderPhotos

Upload Photos

1,891,248 photos uploaded!

WunderBlog® & News

Nearby

Air Quality

  Air Quality AQ Index Pollutant
Not available.

Snow Depth

Station Depth Elevation

Earthquake Activity

City Distance Mag. Time & Date
Minimum magnitude displayed is 2.5.

Coastal Water Temperatures

Place Temperature

Stations

Nearby Weather Stations

Station Location Temp. Windchill Dew Point Humidity Wind Precip. Elev Updated Type
                   

Watches & Warnings

There are currently no watches in effect.